Time;durP1;ratioP1;P1;durP2;ratioP2;P2;SDS_P1;SDS_P2;PMS_P1;PMS_P2;Temp;Humidity;BMP_temperature;BMP_pressure;BME280_temperature;BME280_humidity;BME280_pressure;Samples;Min_cycle;Max_cycle;Signal;HPM_P1;HPM_P2
2024/03/28 00:01:34;;;;;;;51.28;21.50;;;9.30;99.90;;;;;;5017052;28;20041;-71
2024/03/28 00:03:59;;;;;;;44.13;21.83;;;9.30;99.90;;;;;;5016659;28;20061;-72
2024/03/28 00:06:25;;;;;;;36.58;19.95;;;9.30;99.90;;;;;;5016586;28;20037;-71
2024/03/28 00:08:50;;;;;;;44.47;21.85;;;9.30;99.90;;;;;;5016692;28;20089;-70
2024/03/28 00:11:16;;;;;;;44.90;22.25;;;9.30;99.90;;;;;;5017020;28;20026;-72
2024/03/28 00:13:42;;;;;;;46.55;22.13;;;9.30;99.90;;;;;;5017203;28;20061;-72
2024/03/28 00:16:07;;;;;;;47.45;21.80;;;9.30;99.90;;;;;;5016873;28;20038;-72
2024/03/28 00:18:33;;;;;;;53.30;23.48;;;9.20;99.90;;;;;;5017265;28;20161;-70
2024/03/28 00:21:00;;;;;;;50.78;22.67;;;9.30;99.90;;;;;;5015297;28;20022;-71
2024/03/28 00:23:26;;;;;;;46.10;23.00;;;9.20;99.90;;;;;;5015591;28;20030;-73
2024/03/28 00:25:57;;;;;;;44.88;22.55;;;9.20;99.90;;;;;;5017700;28;20406;-70
2024/03/28 00:28:23;;;;;;;49.33;24.10;;;9.20;99.90;;;;;;5013847;28;20125;-71
2024/03/28 00:30:49;;;;;;;47.45;24.10;;;9.20;99.90;;;;;;5014159;28;20029;-71
2024/03/28 00:33:15;;;;;;;46.20;23.50;;;9.20;99.90;;;;;;5017201;28;20091;-72
2024/03/28 00:35:46;;;;;;;47.55;23.08;;;9.20;99.90;;;;;;5015140;28;20048;-72
2024/03/28 00:38:12;;;;;;;57.78;24.42;;;9.20;99.90;;;;;;5015691;28;20030;-72
2024/03/28 00:40:53;;;;;;;51.88;24.25;;;9.10;99.90;;;;;;5013724;28;20030;-71
2024/03/28 00:43:19;;;;;;;46.88;24.27;;;9.10;99.90;;;;;;5015998;28;20066;-72
2024/03/28 00:45:45;;;;;;;46.47;23.15;;;9.10;99.90;;;;;;5016193;28;20021;-72
2024/03/28 00:48:12;;;;;;;50.08;22.98;;;9.10;99.90;;;;;;5016245;28;20045;-72
2024/03/28 00:50:38;;;;;;;46.60;23.10;;;9.10;99.90;;;;;;5014810;28;20119;-71
2024/03/28 00:53:04;;;;;;;49.78;23.73;;;9.00;99.90;;;;;;5015566;28;20030;-72
2024/03/28 00:55:30;;;;;;;50.38;24.15;;;9.10;99.90;;;;;;5015271;28;20379;-72
2024/03/28 00:57:55;;;;;;;54.45;23.80;;;9.00;99.90;;;;;;5013640;28;20037;-72
2024/03/28 01:00:21;;;;;;;48.55;23.08;;;9.00;99.90;;;;;;5015548;28;20109;-74
2024/03/28 01:02:47;;;;;;;49.42;24.75;;;9.00;99.90;;;;;;5013222;28;20077;-73
2024/03/28 01:05:14;;;;;;;53.28;22.75;;;9.00;99.90;;;;;;5013000;28;20125;-73
2024/03/28 01:07:39;;;;;;;49.15;22.30;;;9.00;99.90;;;;;;5015828;28;20029;-73
2024/03/28 01:10:05;;;;;;;50.10;24.27;;;9.00;99.90;;;;;;5015168;28;20056;-73
2024/03/28 01:12:31;;;;;;;50.60;24.15;;;9.00;99.90;;;;;;5016648;28;20037;-73
2024/03/28 01:14:56;;;;;;;51.25;25.15;;;9.00;99.90;;;;;;5013977;28;20038;-75
2024/03/28 01:17:22;;;;;;;47.47;23.00;;;8.90;99.90;;;;;;5012862;28;20031;-73
2024/03/28 01:19:49;;;;;;;51.42;24.10;;;8.90;99.90;;;;;;5013810;28;20057;-73
2024/03/28 01:22:14;;;;;;;53.90;24.13;;;8.90;99.90;;;;;;5011858;28;20047;-74
2024/03/28 01:24:40;;;;;;;52.67;24.98;;;8.90;99.90;;;;;;5014607;28;20042;-73
2024/03/28 01:27:06;;;;;;;46.78;23.05;;;8.80;99.90;;;;;;5012986;28;20018;-72
2024/03/28 01:29:31;;;;;;;52.28;24.00;;;8.80;99.90;;;;;;5013220;28;20524;-72
2024/03/28 01:31:58;;;;;;;54.45;24.35;;;8.80;99.90;;;;;;5013207;28;20556;-73
2024/03/28 01:34:24;;;;;;;50.42;24.38;;;8.70;99.90;;;;;;5014957;28;20018;-72
2024/03/28 01:36:50;;;;;;;51.15;24.33;;;8.70;99.90;;;;;;5013346;28;20462;-73
2024/03/28 01:39:15;;;;;;;52.80;25.02;;;8.70;99.90;;;;;;5014870;28;20029;-73
2024/03/28 01:41:41;;;;;;;50.53;23.75;;;8.70;99.90;;;;;;5014999;28;20033;-73
2024/03/28 01:44:06;;;;;;;52.15;23.60;;;8.70;99.90;;;;;;5012336;28;20129;-73
2024/03/28 01:46:33;;;;;;;50.42;23.90;;;8.70;99.90;;;;;;5013945;28;20038;-73
2024/03/28 01:48:59;;;;;;;47.17;23.42;;;8.70;99.90;;;;;;5014360;28;20030;-72
2024/03/28 01:51:25;;;;;;;49.20;23.20;;;8.60;99.90;;;;;;5013191;28;20048;-72
2024/03/28 01:53:51;;;;;;;51.42;23.25;;;8.70;99.90;;;;;;5015237;28;20037;-73
2024/03/28 01:56:18;;;;;;;48.53;22.15;;;8.60;99.90;;;;;;5014800;28;20034;-73
2024/03/28 01:58:47;;;;;;;48.95;23.08;;;8.60;99.90;;;;;;5012441;28;20049;-73
2024/03/28 02:01:13;;;;;;;45.80;21.95;;;8.60;99.90;;;;;;5014160;28;20038;-74
2024/03/28 02:03:39;;;;;;;47.03;22.67;;;8.60;99.90;;;;;;5012730;28;20062;-75
2024/03/28 02:06:05;;;;;;;49.60;21.73;;;8.60;99.90;;;;;;5013219;28;20049;-74
2024/03/28 02:08:31;;;;;;;43.28;21.30;;;8.60;99.90;;;;;;5012078;28;20030;-75
2024/03/28 02:10:58;;;;;;;42.28;21.33;;;8.60;99.90;;;;;;5014025;28;20105;-74
2024/03/28 02:13:24;;;;;;;47.72;20.70;;;8.50;99.90;;;;;;5011467;28;20104;-75
2024/03/28 02:15:50;;;;;;;42.10;20.58;;;8.50;99.90;;;;;;5014149;28;20037;-75
2024/03/28 02:18:22;;;;;;;51.70;21.48;;;8.50;99.90;;;;;;5012375;28;20021;-75
2024/03/28 02:20:48;;;;;;;42.25;20.33;;;8.50;99.90;;;;;;5013280;28;20086;-74
2024/03/28 02:23:18;;;;;;;44.50;20.20;;;8.50;99.90;;;;;;5012960;28;20049;-75
2024/03/28 02:25:47;;;;;;;44.20;20.45;;;8.50;99.90;;;;;;5013818;28;20046;-75
2024/03/28 02:28:13;;;;;;;43.20;19.98;;;8.50;99.90;;;;;;5014424;28;20035;-75
2024/03/28 02:30:40;;;;;;;44.63;19.30;;;8.50;99.90;;;;;;5013082;28;20054;-74
2024/03/28 02:33:06;;;;;;;38.30;19.30;;;8.50;99.90;;;;;;5013058;28;20429;-74
2024/03/28 02:35:31;;;;;;;41.15;19.48;;;8.40;99.90;;;;;;5011981;28;20048;-75
2024/03/28 02:37:58;;;;;;;42.25;19.05;;;8.40;99.90;;;;;;5012471;28;20018;-76
2024/03/28 02:40:24;;;;;;;37.47;18.35;;;8.30;99.90;;;;;;5028881;28;20029;-76
2024/03/28 02:42:50;;;;;;;36.75;16.50;;;8.30;99.90;;;;;;5013120;28;20030;-74
2024/03/28 02:45:15;;;;;;;39.05;18.38;;;8.30;99.90;;;;;;5012072;28;20049;-74
2024/03/28 02:47:41;;;;;;;39.70;17.92;;;8.30;99.90;;;;;;5012854;28;20033;-76
2024/03/28 02:50:07;;;;;;;37.03;16.92;;;8.30;99.90;;;;;;5014295;28;20060;-76
2024/03/28 02:52:32;;;;;;;42.38;18.60;;;8.30;99.90;;;;;;5013110;28;20023;-76
2024/03/28 02:54:58;;;;;;;36.40;16.27;;;8.30;99.90;;;;;;5013282;28;20034;-75
2024/03/28 02:57:25;;;;;;;40.55;17.55;;;8.20;99.90;;;;;;5013254;28;20455;-76
2024/03/28 02:59:51;;;;;;;36.83;17.13;;;8.30;99.90;;;;;;5012968;28;20038;-75
2024/03/28 03:02:16;;;;;;;37.67;17.65;;;8.30;99.90;;;;;;5013310;28;20037;-74
2024/03/28 03:04:43;;;;;;;30.13;13.85;;;8.30;99.90;;;;;;5010069;28;20049;-75
2024/03/28 03:07:09;;;;;;;31.27;14.52;;;8.20;99.90;;;;;;5010928;28;20053;-73
2024/03/28 03:09:34;;;;;;;26.38;12.10;;;8.20;99.90;;;;;;5012489;28;20085;-79
2024/03/28 03:12:00;;;;;;;23.15;9.90;;;8.10;99.90;;;;;;5011754;28;20030;-77
2024/03/28 03:14:26;;;;;;;22.63;9.93;;;8.10;99.90;;;;;;5013005;28;20037;-77
2024/03/28 03:16:51;;;;;;;17.67;9.45;;;8.00;99.90;;;;;;5011229;28;20030;-74
2024/03/28 03:19:17;;;;;;;15.95;9.07;;;7.90;99.90;;;;;;5012955;28;20044;-75
2024/03/28 03:21:52;;;;;;;23.05;9.82;;;7.90;99.90;;;;;;5012996;28;20360;-74
2024/03/28 03:24:19;;;;;;;18.83;9.50;;;7.80;99.90;;;;;;5014077;28;20563;-75
2024/03/28 03:26:49;;;;;;;17.63;8.70;;;7.70;99.90;;;;;;5011336;28;20164;-76
2024/03/28 03:34:51;;;;;;;14.85;6.72;;;7.70;99.90;;;;;;5013610;28;20076;-74
2024/03/28 03:37:24;;;;;;;11.77;6.05;;;7.60;99.90;;;;;;5011558;28;20029;-75
2024/03/28 03:39:54;;;;;;;13.55;5.13;;;7.50;99.90;;;;;;5012324;28;20038;-75
2024/03/28 03:42:20;;;;;;;14.88;6.97;;;7.50;99.90;;;;;;5012460;28;20054;-74
2024/03/28 03:44:46;;;;;;;14.57;6.18;;;7.50;99.90;;;;;;5011888;28;20039;-75
2024/03/28 03:47:11;;;;;;;11.27;5.82;;;7.40;99.90;;;;;;5011226;28;20037;-76
2024/03/28 03:49:43;;;;;;;14.23;5.80;;;7.50;99.90;;;;;;5010527;28;20034;-73
2024/03/28 03:52:12;;;;;;;11.57;5.65;;;7.40;99.90;;;;;;5034659;28;20053;-76
2024/03/28 03:54:38;;;;;;;15.68;6.03;;;7.30;99.90;;;;;;5011416;28;20026;-76
2024/03/28 03:57:04;;;;;;;10.98;5.55;;;7.30;99.90;;;;;;5011642;28;20062;-76
2024/03/28 03:59:29;;;;;;;11.15;5.53;;;7.20;99.90;;;;;;5013128;28;20041;-76
2024/03/28 04:01:55;;;;;;;13.50;4.72;;;7.20;99.90;;;;;;5009879;28;20093;-75
2024/03/28 04:04:21;;;;;;;9.73;4.70;;;7.20;99.90;;;;;;5011142;28;20053;-75
2024/03/28 04:06:46;;;;;;;10.38;4.68;;;7.20;99.90;;;;;;5008445;28;20656;-74
2024/03/28 04:09:12;;;;;;;10.77;4.45;;;7.20;99.90;;;;;;5010146;28;20029;-74
2024/03/28 04:11:37;;;;;;;8.20;4.05;;;7.20;99.90;;;;;;5015385;28;20034;-74
2024/03/28 04:14:03;;;;;;;9.13;4.07;;;7.20;99.90;;;;;;5014959;28;20455;-74
2024/03/28 04:16:29;;;;;;;6.63;3.65;;;7.20;99.90;;;;;;5014398;28;20022;-75
2024/03/28 04:18:54;;;;;;;6.38;3.38;;;7.20;99.90;;;;;;5015495;28;20026;-75
2024/03/28 04:21:20;;;;;;;6.88;3.33;;;7.20;99.90;;;;;;5014600;28;20042;-73
2024/03/28 04:23:46;;;;;;;6.85;3.30;;;7.20;99.90;;;;;;5013949;28;20038;-72
2024/03/28 04:26:12;;;;;;;10.27;3.28;;;7.20;99.90;;;;;;5016154;28;20442;-72
2024/03/28 04:28:37;;;;;;;6.60;3.08;;;7.20;99.90;;;;;;5015795;28;20030;-73
2024/03/28 04:31:03;;;;;;;8.18;3.40;;;7.10;99.90;;;;;;5016016;28;20057;-75
2024/03/28 04:33:29;;;;;;;6.80;3.25;;;7.10;99.90;;;;;;5016028;28;20033;-74
2024/03/28 04:35:54;;;;;;;7.07;3.10;;;7.10;99.90;;;;;;5016249;28;20045;-73
2024/03/28 04:38:20;;;;;;;6.88;3.22;;;7.00;99.90;;;;;;5015104;28;20117;-76
2024/03/28 04:40:45;;;;;;;5.40;3.63;;;7.00;99.90;;;;;;5015627;28;20088;-74
2024/03/28 04:43:11;;;;;;;7.07;3.00;;;7.00;99.90;;;;;;5014183;28;20036;-75
2024/03/28 04:45:37;;;;;;;5.85;3.25;;;7.00;99.90;;;;;;5014225;28;20105;-75
2024/03/28 04:48:03;;;;;;;8.40;3.33;;;7.00;99.90;;;;;;5015516;28;20054;-73
2024/03/28 04:50:29;;;;;;;6.30;3.42;;;6.90;99.90;;;;;;5014359;28;20025;-75
2024/03/28 04:52:55;;;;;;;6.45;3.38;;;7.00;99.90;;;;;;5013640;28;20069;-76
2024/03/28 04:55:20;;;;;;;7.95;3.63;;;7.00;99.90;;;;;;5016657;28;20035;-76
2024/03/28 04:57:46;;;;;;;7.68;3.38;;;7.00;99.90;;;;;;5014504;28;20405;-74
2024/03/28 05:00:13;;;;;;;8.15;3.33;;;7.00;99.90;;;;;;5014036;28;20018;-74
2024/03/28 05:02:39;;;;;;;10.70;3.63;;;7.00;99.90;;;;;;5013689;28;20109;-75
2024/03/28 05:05:06;;;;;;;8.38;3.92;;;7.00;99.90;;;;;;5014211;28;20038;-75
2024/03/28 05:07:32;;;;;;;6.32;3.50;;;7.00;99.90;;;;;;5008723;28;20033;-73
2024/03/28 05:09:58;;;;;;;6.93;3.83;;;7.00;99.90;;;;;;5014047;28;20026;-75
2024/03/28 05:12:24;;;;;;;7.97;3.30;;;6.90;99.90;;;;;;5013171;28;20101;-73
2024/03/28 05:14:49;;;;;;;8.82;3.25;;;6.90;99.90;;;;;;5014035;28;20033;-75
2024/03/28 05:17:15;;;;;;;6.95;3.38;;;6.90;99.90;;;;;;5012702;28;20026;-73
2024/03/28 05:19:41;;;;;;;5.68;2.67;;;6.90;99.90;;;;;;5013306;28;20048;-73
2024/03/28 05:22:10;;;;;;;5.95;2.80;;;6.90;99.90;;;;;;5013896;28;20092;-73
2024/03/28 05:24:35;;;;;;;4.72;2.95;;;6.90;99.90;;;;;;5013311;28;20041;-72
2024/03/28 05:27:02;;;;;;;6.13;2.95;;;6.90;99.90;;;;;;5013713;28;20154;-74
2024/03/28 05:29:28;;;;;;;6.10;3.05;;;7.00;99.90;;;;;;5012325;28;20045;-76
2024/03/28 05:31:54;;;;;;;4.32;2.42;;;7.00;99.90;;;;;;5012018;28;20049;-74
2024/03/28 05:34:20;;;;;;;4.80;2.60;;;7.00;99.90;;;;;;5012396;28;20105;-73
2024/03/28 05:36:46;;;;;;;8.63;2.40;;;7.00;99.90;;;;;;5013402;28;20386;-73
2024/03/28 05:39:14;;;;;;;3.97;2.10;;;7.10;99.90;;;;;;5013960;28;20030;-74
2024/03/28 05:41:40;;;;;;;3.47;2.22;;;7.00;99.90;;;;;;5011709;28;20026;-74
2024/03/28 05:44:05;;;;;;;4.85;2.40;;;7.00;99.90;;;;;;5011363;28;20034;-75
2024/03/28 05:46:31;;;;;;;4.20;2.35;;;7.10;99.90;;;;;;5013157;28;20113;-74
2024/03/28 05:48:57;;;;;;;4.68;2.05;;;7.10;99.90;;;;;;5012162;28;20092;-73
2024/03/28 05:51:23;;;;;;;3.85;2.33;;;7.00;99.90;;;;;;5014655;28;20494;-74
2024/03/28 05:53:48;;;;;;;5.22;2.17;;;7.00;99.90;;;;;;5013992;28;20030;-74
2024/03/28 05:56:15;;;;;;;6.53;2.28;;;7.00;99.90;;;;;;5011300;28;20533;-76
2024/03/28 05:58:40;;;;;;;2.83;1.83;;;7.00;99.90;;;;;;5011681;28;20034;-75
2024/03/28 06:01:06;;;;;;;4.70;2.13;;;7.00;99.90;;;;;;5011698;28;20037;-73
2024/03/28 06:03:31;;;;;;;4.60;1.92;;;7.00;99.90;;;;;;5013449;28;20064;-77
2024/03/28 06:05:57;;;;;;;2.33;1.63;;;7.00;99.90;;;;;;5012098;28;20057;-73
2024/03/28 06:08:23;;;;;;;2.53;1.65;;;7.00;99.90;;;;;;5012401;28;20485;-75
2024/03/28 06:10:48;;;;;;;5.47;2.50;;;7.00;99.90;;;;;;5014122;28;20060;-73
2024/03/28 06:13:16;;;;;;;5.25;2.38;;;7.00;99.90;;;;;;5012513;28;20053;-75
2024/03/28 06:15:42;;;;;;;5.18;2.33;;;7.10;99.90;;;;;;5013918;28;20058;-75
2024/03/28 06:18:07;;;;;;;5.60;2.50;;;7.10;99.90;;;;;;5010915;28;20038;-75
2024/03/28 06:20:33;;;;;;;5.20;2.92;;;7.10;99.90;;;;;;5013495;28;20043;-74
2024/03/28 06:22:58;;;;;;;7.82;3.25;;;7.10;99.90;;;;;;5010857;28;20034;-74
2024/03/28 06:25:24;;;;;;;8.90;3.85;;;7.10;99.90;;;;;;5011034;28;20118;-76
2024/03/28 06:27:49;;;;;;;7.13;3.58;;;7.10;99.90;;;;;;5012181;28;20046;-74
2024/03/28 06:30:25;;;;;;;5.05;3.00;;;7.10;99.90;;;;;;5011750;28;20114;-75
2024/03/28 06:32:54;;;;;;;4.50;2.90;;;7.10;99.90;;;;;;5012842;28;20018;-75
2024/03/28 06:35:21;;;;;;;3.88;2.30;;;7.20;99.90;;;;;;5011541;28;20089;-75
2024/03/28 06:37:47;;;;;;;4.13;2.40;;;7.20;99.90;;;;;;5011291;28;20036;-74
2024/03/28 06:40:12;;;;;;;6.88;3.00;;;7.20;99.90;;;;;;5010887;28;20035;-75
2024/03/28 06:42:38;;;;;;;7.70;2.85;;;7.20;99.90;;;;;;5011193;28;21330;-75
2024/03/28 06:45:04;;;;;;;5.47;3.20;;;7.20;99.90;;;;;;5009441;28;20030;-74
2024/03/28 06:47:30;;;;;;;4.40;2.33;;;7.20;99.90;;;;;;5011543;28;20080;-75
2024/03/28 06:49:55;;;;;;;9.05;3.35;;;7.20;99.90;;;;;;5011023;28;20022;-74
2024/03/28 06:52:21;;;;;;;5.78;3.20;;;7.20;99.90;;;;;;5010624;28;20057;-74
2024/03/28 06:54:46;;;;;;;5.68;3.03;;;7.20;99.90;;;;;;5012501;28;20029;-74
2024/03/28 06:57:12;;;;;;;5.00;2.83;;;7.30;99.90;;;;;;5012425;28;20018;-75
2024/03/28 06:59:37;;;;;;;8.55;2.90;;;7.30;99.90;;;;;;5011772;28;20032;-72
2024/03/28 07:02:04;;;;;;;8.77;2.83;;;7.40;99.90;;;;;;5010483;28;20058;-72
2024/03/28 07:04:29;;;;;;;6.00;2.83;;;7.40;99.90;;;;;;5009422;28;20050;-73
2024/03/28 07:06:55;;;;;;;5.88;2.88;;;7.40;99.90;;;;;;5009693;28;20026;-74
2024/03/28 07:09:21;;;;;;;4.47;2.75;;;7.40;99.90;;;;;;5012203;28;20018;-74
2024/03/28 07:11:46;;;;;;;7.57;2.78;;;7.50;99.90;;;;;;5011591;28;20113;-73
2024/03/28 07:14:13;;;;;;;6.03;3.00;;;7.50;99.90;;;;;;5010480;28;20018;-73
2024/03/28 07:16:40;;;;;;;6.13;3.00;;;7.60;99.90;;;;;;5012351;28;20048;-73
2024/03/28 07:19:05;;;;;;;5.72;3.20;;;7.60;99.90;;;;;;5012219;28;20025;-74
2024/03/28 07:21:31;;;;;;;6.78;3.10;;;7.60;99.90;;;;;;5010181;28;20097;-74
2024/03/28 07:23:56;;;;;;;5.55;3.03;;;7.70;99.90;;;;;;5010609;28;20057;-73
2024/03/28 07:26:22;;;;;;;6.10;3.17;;;7.70;99.90;;;;;;5011031;28;20032;-73
2024/03/28 07:28:48;;;;;;;5.93;3.33;;;7.70;99.90;;;;;;5012266;28;20376;-73
2024/03/28 07:31:13;;;;;;;5.85;3.50;;;7.70;99.90;;;;;;5010782;28;20384;-72
2024/03/28 07:33:39;;;;;;;6.70;3.60;;;7.80;99.90;;;;;;5011335;28;20386;-74
2024/03/28 07:36:05;;;;;;;7.97;3.70;;;7.90;99.90;;;;;;5011464;28;20027;-73
2024/03/28 07:38:31;;;;;;;4.22;2.83;;;7.90;99.90;;;;;;5012498;28;20045;-74
2024/03/28 07:40:57;;;;;;;4.70;2.83;;;8.00;99.90;;;;;;5010274;28;20027;-73
2024/03/28 07:43:23;;;;;;;5.93;3.13;;;8.00;99.90;;;;;;5011791;28;20105;-73
2024/03/28 07:45:48;;;;;;;4.72;2.88;;;8.10;99.90;;;;;;5012188;28;20037;-73
2024/03/28 07:48:15;;;;;;;6.05;3.28;;;8.20;99.90;;;;;;5012492;28;20063;-74
2024/03/28 07:50:40;;;;;;;4.97;2.45;;;8.20;99.90;;;;;;5014073;28;20030;-74
2024/03/28 07:53:06;;;;;;;3.92;2.50;;;8.30;99.90;;;;;;5014852;28;20395;-73
2024/03/28 07:55:32;;;;;;;3.67;2.35;;;8.30;99.90;;;;;;5013690;28;20026;-73
2024/03/28 07:57:58;;;;;;;4.22;3.00;;;8.40;99.90;;;;;;5014721;28;20494;-74
2024/03/28 08:00:24;;;;;;;3.47;2.35;;;8.40;99.90;;;;;;5012884;28;20030;-73
2024/03/28 08:02:50;;;;;;;4.75;1.73;;;8.40;99.90;;;;;;5013961;28;20403;-74
2024/03/28 08:05:17;;;;;;;3.38;2.10;;;8.40;99.90;;;;;;5014792;28;20049;-73
2024/03/28 08:07:46;;;;;;;4.78;2.13;;;8.60;99.90;;;;;;5013136;28;20022;-73
2024/03/28 08:10:12;;;;;;;5.57;3.00;;;8.60;99.90;;;;;;5013795;28;20036;-72
2024/03/28 08:12:38;;;;;;;7.30;2.90;;;8.60;99.90;;;;;;5014095;28;20037;-74
2024/03/28 08:15:07;;;;;;;5.47;3.03;;;8.60;99.90;;;;;;5013020;28;20098;-75
2024/03/28 08:17:33;;;;;;;5.15;2.78;;;8.60;99.90;;;;;;5012323;28;20041;-74
2024/03/28 08:20:00;;;;;;;4.72;2.92;;;8.60;99.90;;;;;;5014879;28;20037;-75
2024/03/28 08:22:26;;;;;;;5.50;3.03;;;8.60;99.90;;;;;;5013405;28;20057;-76
2024/03/28 08:24:52;;;;;;;12.60;5.68;;;8.70;99.90;;;;;;5013016;28;20053;-76
2024/03/28 08:27:18;;;;;;;11.32;5.95;;;8.70;99.90;;;;;;5013977;28;20022;-75
2024/03/28 08:29:44;;;;;;;16.10;8.85;;;8.70;99.90;;;;;;5015301;28;20029;-74
2024/03/28 08:32:10;;;;;;;36.22;20.23;;;8.70;99.90;;;;;;5018020;28;20030;-74
2024/03/28 08:34:36;;;;;;;47.15;24.55;;;8.80;99.90;;;;;;5016522;28;20030;-76
2024/03/28 08:37:02;;;;;;;56.53;26.95;;;8.90;99.90;;;;;;5013351;28;20172;-79
2024/03/28 08:39:28;;;;;;;41.92;19.27;;;9.00;99.90;;;;;;5013290;28;20650;-77
2024/03/28 08:41:53;;;;;;;49.85;20.52;;;9.10;99.90;;;;;;5015943;28;20038;-77
2024/03/28 08:44:20;;;;;;;28.60;12.85;;;9.20;99.90;;;;;;5014426;28;20030;-78
2024/03/28 08:46:45;;;;;;;26.50;13.32;;;9.30;99.90;;;;;;5014119;28;20026;-77
2024/03/28 08:49:11;;;;;;;27.05;12.73;;;9.40;99.90;;;;;;5015005;28;20057;-76
2024/03/28 08:51:37;;;;;;;25.40;12.68;;;9.50;99.90;;;;;;5013436;28;20022;-78
2024/03/28 08:54:05;;;;;;;23.10;13.00;;;9.80;99.90;;;;;;5013914;28;20064;-77
2024/03/28 08:56:32;;;;;;;19.90;12.13;;;10.20;99.90;;;;;;5013613;28;20478;-79
2024/03/28 08:58:58;;;;;;;17.67;11.50;;;10.50;99.90;;;;;;5018654;28;20050;-78
2024/03/28 09:01:24;;;;;;;20.10;12.88;;;10.90;99.90;;;;;;5015053;28;20025;-76
2024/03/28 09:03:52;;;;;;;19.73;12.10;;;11.00;99.90;;;;;;5016387;28;20533;-82
2024/03/28 09:06:19;;;;;;;19.55;11.63;;;10.90;99.90;;;;;;5016393;28;20034;-80
2024/03/28 09:08:46;;;;;;;18.65;11.82;;;10.70;99.90;;;;;;5014614;28;20033;-80
2024/03/28 09:11:12;;;;;;;17.00;10.38;;;10.60;99.90;;;;;;5015920;28;20045;-84
2024/03/28 09:13:38;;;;;;;15.45;10.55;;;10.60;99.90;;;;;;5014002;28;20034;-78
2024/03/28 09:16:06;;;;;;;13.32;7.72;;;10.70;99.90;;;;;;5015225;28;20023;-81
2024/03/28 09:18:32;;;;;;;10.77;7.30;;;10.90;99.90;;;;;;5015118;28;20123;-83
2024/03/28 09:21:08;;;;;;;10.85;6.97;;;11.20;99.90;;;;;;5014570;28;20040;-80
2024/03/28 09:23:34;;;;;;;9.60;5.50;;;11.50;99.90;;;;;;5013637;28;20030;-80
2024/03/28 09:26:00;;;;;;;6.63;4.28;;;11.80;99.90;;;;;;5014248;28;20034;-77
2024/03/28 09:28:27;;;;;;;4.72;3.10;;;12.00;99.90;;;;;;5013115;28;20037;-77
2024/03/28 09:30:53;;;;;;;4.57;3.03;;;12.30;99.90;;;;;;5014088;28;20056;-77
2024/03/28 09:33:19;;;;;;;5.38;3.25;;;12.30;99.90;;;;;;5015036;28;20064;-79
2024/03/28 09:35:46;;;;;;;3.67;2.80;;;12.50;99.90;;;;;;5013506;28;20045;-77
2024/03/28 09:38:12;;;;;;;5.30;2.78;;;12.50;99.90;;;;;;5013592;28;20089;-77
2024/03/28 09:40:50;;;;;;;3.65;2.60;;;12.40;99.90;;;;;;5013412;28;20038;-78
2024/03/28 09:43:15;;;;;;;5.93;2.80;;;12.20;99.90;;;;;;5036869;28;20030;-79
2024/03/28 09:45:41;;;;;;;4.78;3.13;;;12.10;99.90;;;;;;5013256;28;20141;-78
2024/03/28 09:48:08;;;;;;;5.03;3.40;;;12.00;99.90;;;;;;5014058;28;20053;-78
2024/03/28 09:50:36;;;;;;;5.82;3.42;;;11.80;99.90;;;;;;5013954;28;20081;-77
2024/03/28 09:53:04;;;;;;;5.32;3.67;;;11.90;99.90;;;;;;5013271;28;20034;-78
2024/03/28 09:55:30;;;;;;;7.28;3.85;;;12.00;99.90;;;;;;5014331;28;20036;-77
2024/03/28 09:57:59;;;;;;;6.65;4.10;;;12.10;99.90;;;;;;5011111;28;20086;-77
2024/03/28 10:00:25;;;;;;;5.80;4.00;;;12.40;99.90;;;;;;5013754;28;20093;-76
2024/03/28 10:03:00;;;;;;;5.20;4.00;;;12.70;99.90;;;;;;5013254;28;20042;-75
2024/03/28 10:05:26;;;;;;;11.15;4.95;;;12.90;99.90;;;;;;5013551;28;20050;-75
2024/03/28 10:07:52;;;;;;;6.85;5.10;;;13.20;99.90;;;;;;5013482;28;20033;-74
2024/03/28 10:10:19;;;;;;;8.38;5.80;;;13.10;99.90;;;;;;5013201;28;20490;-74
2024/03/28 10:12:52;;;;;;;8.60;5.72;;;13.00;99.90;;;;;;5011323;28;20490;-76
2024/03/28 10:15:19;;;;;;;9.05;5.68;;;13.10;99.90;;;;;;5010660;28;20057;-73
2024/03/28 10:17:45;;;;;;;9.77;6.63;;;13.30;99.90;;;;;;5010227;28;20776;-73
2024/03/28 10:20:11;;;;;;;10.05;7.60;;;13.20;99.90;;;;;;5011911;28;20041;-75
2024/03/28 10:22:52;;;;;;;10.80;7.95;;;13.30;99.90;;;;;;5010917;28;20034;-74
2024/03/28 10:25:19;;;;;;;10.75;7.20;;;13.60;99.90;;;;;;5012157;28;20038;-74
2024/03/28 10:27:45;;;;;;;13.30;7.93;;;13.70;99.90;;;;;;5011305;28;20018;-75
2024/03/28 10:30:19;;;;;;;10.40;7.35;;;13.90;99.90;;;;;;5011827;28;20030;-75
2024/03/28 10:32:44;;;;;;;11.38;8.50;;;13.90;99.90;;;;;;5012128;28;20072;-75
2024/03/28 10:35:10;;;;;;;13.00;7.80;;;14.00;99.90;;;;;;5012669;28;20026;-74
2024/03/28 10:37:36;;;;;;;14.75;7.95;;;13.90;99.90;;;;;;5010903;28;20033;-74
2024/03/28 10:40:02;;;;;;;13.80;8.43;;;13.90;99.90;;;;;;5012303;28;20026;-75
2024/03/28 10:42:29;;;;;;;12.73;8.38;;;13.90;99.90;;;;;;5011188;28;20034;-75
2024/03/28 10:44:59;;;;;;;11.88;8.60;;;13.90;99.90;;;;;;5012327;28;20109;-73
2024/03/28 10:47:28;;;;;;;13.57;9.35;;;14.10;99.90;;;;;;5012375;28;20022;-74
2024/03/28 10:50:17;;;;;;;12.15;9.30;;;14.30;99.90;;;;;;5011310;28;20026;-76
2024/03/28 10:52:51;;;;;;;13.50;9.90;;;14.30;99.90;;;;;;5011977;28;20038;-74
2024/03/28 10:55:21;;;;;;;15.43;9.82;;;14.30;99.90;;;;;;5012652;28;20036;-75
2024/03/28 10:57:47;;;;;;;14.20;9.50;;;14.20;99.90;;;;;;5012228;28;20069;-73
2024/03/28 11:00:14;;;;;;;14.93;8.65;;;14.10;99.90;;;;;;5011947;28;20026;-76
2024/03/28 11:02:43;;;;;;;13.57;9.45;;;13.90;99.90;;;;;;5010654;28;20050;-77
2024/03/28 11:05:08;;;;;;;13.50;9.70;;;13.80;99.90;;;;;;5010881;28;20204;-74
2024/03/28 11:07:34;;;;;;;15.15;9.82;;;13.60;99.90;;;;;;5009394;28;20050;-75
2024/03/28 11:10:00;;;;;;;15.95;9.68;;;13.60;99.90;;;;;;5011549;28;20027;-73
2024/03/28 11:12:27;;;;;;;14.45;9.30;;;13.50;99.90;;;;;;5010794;28;20038;-76
2024/03/28 11:15:04;;;;;;;13.18;9.15;;;13.60;99.90;;;;;;5011748;28;20030;-76
2024/03/28 11:17:30;;;;;;;13.25;8.88;;;13.70;99.90;;;;;;5010389;28;20113;-76
2024/03/28 11:20:03;;;;;;;14.15;9.70;;;13.60;99.90;;;;;;5011518;28;20114;-74
2024/03/28 11:22:32;;;;;;;10.60;8.48;;;13.60;99.90;;;;;;5016786;28;20065;-77
2024/03/28 11:24:58;;;;;;;15.23;8.93;;;13.60;99.90;;;;;;5016291;28;20053;-74
2024/03/28 11:27:23;;;;;;;11.82;9.05;;;13.60;99.90;;;;;;5014953;28;20034;-75
2024/03/28 11:30:04;;;;;;;10.23;7.68;;;13.40;99.90;;;;;;5014730;28;20026;-75
2024/03/28 11:32:30;;;;;;;7.85;5.43;;;13.30;99.90;;;;;;5015216;28;20026;-73
2024/03/28 11:35:06;;;;;;;13.80;6.38;;;13.20;99.90;;;;;;5014505;28;20037;-77
2024/03/28 11:37:32;;;;;;;7.70;5.53;;;13.10;99.90;;;;;;5018051;28;20026;-74
2024/03/28 11:39:58;;;;;;;9.13;5.97;;;13.10;99.90;;;;;;5014544;28;20117;-76
2024/03/28 11:42:23;;;;;;;7.65;5.70;;;13.40;99.90;;;;;;5015202;28;20032;-75
2024/03/28 11:44:49;;;;;;;7.85;5.35;;;13.80;99.90;;;;;;5014997;28;20042;-78
2024/03/28 11:47:24;;;;;;;8.18;5.10;;;14.10;99.90;;;;;;5013868;28;20057;-75
2024/03/28 11:49:49;;;;;;;5.43;4.50;;;14.50;99.90;;;;;;5015694;28;20030;-75
2024/03/28 11:52:15;;;;;;;7.22;4.32;;;14.70;99.90;;;;;;5013962;28;20073;-75
2024/03/28 11:54:43;;;;;;;5.60;4.20;;;14.60;99.90;;;;;;5012576;28;20058;-76
2024/03/28 11:57:09;;;;;;;5.47;4.22;;;14.70;99.90;;;;;;5014310;28;20033;-74
2024/03/28 11:59:34;;;;;;;5.22;4.32;;;15.20;99.90;;;;;;5015423;28;20030;-74
2024/03/28 12:02:04;;;;;;;8.50;4.28;;;15.40;99.90;;;;;;5015499;28;20116;-74
2024/03/28 12:04:29;;;;;;;6.85;4.15;;;15.20;99.90;;;;;;5014488;28;20106;-78
2024/03/28 12:06:57;;;;;;;8.23;4.88;;;15.10;99.90;;;;;;5013951;28;20026;-74
2024/03/28 12:09:24;;;;;;;6.90;5.18;;;14.90;99.90;;;;;;5013617;28;20022;-74
2024/03/28 12:11:50;;;;;;;6.93;4.55;;;14.50;99.90;;;;;;5016031;28;20025;-75
2024/03/28 12:14:20;;;;;;;6.53;4.78;;;14.20;99.90;;;;;;5015538;28;20742;-76
2024/03/28 12:16:46;;;;;;;7.50;4.72;;;13.80;99.90;;;;;;5014293;28;20438;-73
2024/03/28 12:19:13;;;;;;;7.15;4.78;;;13.60;99.90;;;;;;5013200;28;20136;-74
2024/03/28 12:21:39;;;;;;;5.40;4.03;;;13.30;99.90;;;;;;5013519;28;20023;-73
2024/03/28 12:24:06;;;;;;;5.82;4.28;;;13.00;99.90;;;;;;5012600;28;20571;-73
2024/03/28 12:26:32;;;;;;;6.03;4.00;;;12.90;99.90;;;;;;5012319;28;20030;-78
2024/03/28 12:28:58;;;;;;;7.05;3.80;;;12.80;99.90;;;;;;5012961;28;20030;-77
2024/03/28 12:31:25;;;;;;;4.45;3.65;;;12.70;99.90;;;;;;5014417;28;20398;-73
2024/03/28 12:33:50;;;;;;;8.25;4.00;;;12.60;99.90;;;;;;5014229;28;20034;-73
2024/03/28 12:36:17;;;;;;;6.32;3.47;;;12.60;99.90;;;;;;5015284;28;20026;-73
2024/03/28 12:38:51;;;;;;;4.68;3.60;;;12.50;99.90;;;;;;5013437;28;20034;-72
2024/03/28 12:41:22;;;;;;;6.20;4.22;;;12.40;99.90;;;;;;5014417;28;20148;-72
2024/03/28 12:44:00;;;;;;;6.72;4.32;;;12.30;99.90;;;;;;5014403;28;20041;-73
2024/03/28 12:46:26;;;;;;;9.02;4.93;;;12.20;99.90;;;;;;5013997;28;20088;-75
2024/03/28 12:48:52;;;;;;;11.77;6.68;;;12.20;99.90;;;;;;5014875;28;20030;-74